sensor_id;sensor_type;location;lat;lon;timestamp;temperature;humidity
41756;DHT22;27435;48.480;9.258;2024-03-06T00:00:55;5.90;99.00
41756;DHT22;27435;48.480;9.258;2024-03-06T00:03:21;5.80;99.00
41756;DHT22;27435;48.480;9.258;2024-03-06T00:05:47;5.80;99.00
41756;DHT22;27435;48.480;9.258;2024-03-06T00:08:13;5.70;99.00
41756;DHT22;27435;48.480;9.258;2024-03-06T00:10:41;5.70;99.00
41756;DHT22;27435;48.480;9.258;2024-03-06T00:13:06;5.70;99.00
41756;DHT22;27435;48.480;9.258;2024-03-06T00:15:32;5.90;99.00
41756;DHT22;27435;48.480;9.258;2024-03-06T00:17:58;5.80;99.00
41756;DHT22;27435;48.480;9.258;2024-03-06T00:20:24;5.70;99.00
41756;DHT22;27435;48.480;9.258;2024-03-06T00:22:49;5.70;99.00
41756;DHT22;27435;48.480;9.258;2024-03-06T00:25:15;5.60;99.00
41756;DHT22;27435;48.480;9.258;2024-03-06T00:27:41;5.60;99.00
41756;DHT22;27435;48.480;9.258;2024-03-06T00:30:07;5.60;99.00
41756;DHT22;27435;48.480;9.258;2024-03-06T00:32:32;5.60;99.00
41756;DHT22;27435;48.480;9.258;2024-03-06T00:34:58;5.70;99.00
41756;DHT22;27435;48.480;9.258;2024-03-06T00:37:24;5.90;99.00
41756;DHT22;27435;48.480;9.258;2024-03-06T00:39:49;5.80;99.00
41756;DHT22;27435;48.480;9.258;2024-03-06T00:42:15;5.90;99.00
41756;DHT22;27435;48.480;9.258;2024-03-06T00:44:41;5.90;99.00
41756;DHT22;27435;48.480;9.258;2024-03-06T00:47:06;6.00;99.00
41756;DHT22;27435;48.480;9.258;2024-03-06T00:49:32;6.00;99.00
41756;DHT22;27435;48.480;9.258;2024-03-06T00:51:58;6.00;99.00
41756;DHT22;27435;48.480;9.258;2024-03-06T00:54:23;6.10;99.00
41756;DHT22;27435;48.480;9.258;2024-03-06T00:56:49;6.00;99.00
41756;DHT22;27435;48.480;9.258;2024-03-06T00:59:15;5.90;99.00
41756;DHT22;27435;48.480;9.258;2024-03-06T01:01:40;5.80;99.00
41756;DHT22;27435;48.480;9.258;2024-03-06T01:04:06;5.80;99.00
41756;DHT22;27435;48.480;9.258;2024-03-06T01:06:32;5.90;99.00
41756;DHT22;27435;48.480;9.258;2024-03-06T01:08:58;5.90;99.00
41756;DHT22;27435;48.480;9.258;2024-03-06T01:11:25;5.90;99.00
41756;DHT22;27435;48.480;9.258;2024-03-06T01:13:52;5.80;99.00
41756;DHT22;27435;48.480;9.258;2024-03-06T01:16:17;5.80;99.00
41756;DHT22;27435;48.480;9.258;2024-03-06T01:18:43;5.80;99.00
41756;DHT22;27435;48.480;9.258;2024-03-06T01:21:09;5.90;99.00
41756;DHT22;27435;48.480;9.258;2024-03-06T01:23:35;5.90;99.00
41756;DHT22;27435;48.480;9.258;2024-03-06T01:26:01;5.80;99.00
41756;DHT22;27435;48.480;9.258;2024-03-06T01:28:26;5.90;99.00
41756;DHT22;27435;48.480;9.258;2024-03-06T01:30:52;5.80;99.00
41756;DHT22;27435;48.480;9.258;2024-03-06T01:33:18;5.80;99.00
41756;DHT22;27435;48.480;9.258;2024-03-06T01:35:44;5.80;99.00
41756;DHT22;27435;48.480;9.258;2024-03-06T01:38:09;5.70;99.00
41756;DHT22;27435;48.480;9.258;2024-03-06T01:40:35;5.80;99.00
41756;DHT22;27435;48.480;9.258;2024-03-06T01:43:01;5.90;99.00
41756;DHT22;27435;48.480;9.258;2024-03-06T01:45:27;5.90;99.00
41756;DHT22;27435;48.480;9.258;2024-03-06T01:47:52;5.80;99.00
41756;DHT22;27435;48.480;9.258;2024-03-06T01:50:18;5.70;99.00
41756;DHT22;27435;48.480;9.258;2024-03-06T01:52:44;5.80;99.00
41756;DHT22;27435;48.480;9.258;2024-03-06T01:55:12;5.80;99.00
41756;DHT22;27435;48.480;9.258;2024-03-06T01:57:39;5.70;99.00
41756;DHT22;27435;48.480;9.258;2024-03-06T02:00:06;5.70;99.00
41756;DHT22;27435;48.480;9.258;2024-03-06T02:02:34;5.70;99.00
41756;DHT22;27435;48.480;9.258;2024-03-06T02:04:59;5.80;99.00
41756;DHT22;27435;48.480;9.258;2024-03-06T02:07:28;5.70;99.00
41756;DHT22;27435;48.480;9.258;2024-03-06T02:09:57;5.80;99.00
41756;DHT22;27435;48.480;9.258;2024-03-06T02:12:23;5.90;99.00
41756;DHT22;27435;48.480;9.258;2024-03-06T02:14:49;5.80;99.00
41756;DHT22;27435;48.480;9.258;2024-03-06T02:17:15;5.80;99.00
41756;DHT22;27435;48.480;9.258;2024-03-06T02:19:41;5.80;99.00
41756;DHT22;27435;48.480;9.258;2024-03-06T02:22:08;5.80;99.00
41756;DHT22;27435;48.480;9.258;2024-03-06T02:24:35;5.80;99.00
41756;DHT22;27435;48.480;9.258;2024-03-06T02:27:00;5.90;99.00
41756;DHT22;27435;48.480;9.258;2024-03-06T02:29:26;5.90;99.00
41756;DHT22;27435;48.480;9.258;2024-03-06T02:31:52;5.90;99.00
41756;DHT22;27435;48.480;9.258;2024-03-06T02:34:17;5.80;99.00
41756;DHT22;27435;48.480;9.258;2024-03-06T02:36:43;5.80;99.00
41756;DHT22;27435;48.480;9.258;2024-03-06T02:39:09;5.80;99.00
41756;DHT22;27435;48.480;9.258;2024-03-06T02:41:35;5.70;99.00
41756;DHT22;27435;48.480;9.258;2024-03-06T02:44:01;5.70;99.00
41756;DHT22;27435;48.480;9.258;2024-03-06T02:46:28;5.70;99.00
41756;DHT22;27435;48.480;9.258;2024-03-06T02:48:54;5.50;99.00
41756;DHT22;27435;48.480;9.258;2024-03-06T02:51:20;5.60;99.00
41756;DHT22;27435;48.480;9.258;2024-03-06T02:53:46;5.60;99.00
41756;DHT22;27435;48.480;9.258;2024-03-06T02:56:18;5.60;99.00
41756;DHT22;27435;48.480;9.258;2024-03-06T02:58:44;5.70;99.00
41756;DHT22;27435;48.480;9.258;2024-03-06T03:01:10;5.50;99.00
41756;DHT22;27435;48.480;9.258;2024-03-06T03:03:36;5.50;99.00
41756;DHT22;27435;48.480;9.258;2024-03-06T03:06:02;5.50;99.00
41756;DHT22;27435;48.480;9.258;2024-03-06T03:08:28;5.50;99.00
41756;DHT22;27435;48.480;9.258;2024-03-06T03:10:53;5.60;99.00
41756;DHT22;27435;48.480;9.258;2024-03-06T03:13:19;5.70;99.00
41756;DHT22;27435;48.480;9.258;2024-03-06T03:15:45;5.80;99.00
41756;DHT22;27435;48.480;9.258;2024-03-06T03:18:10;5.70;99.00
41756;DHT22;27435;48.480;9.258;2024-03-06T03:20:36;5.70;99.00
41756;DHT22;27435;48.480;9.258;2024-03-06T03:23:02;5.80;99.00
41756;DHT22;27435;48.480;9.258;2024-03-06T03:25:27;5.80;99.00
41756;DHT22;27435;48.480;9.258;2024-03-06T03:27:53;5.90;99.00
41756;DHT22;27435;48.480;9.258;2024-03-06T03:30:19;5.80;99.00
41756;DHT22;27435;48.480;9.258;2024-03-06T03:32:50;5.80;99.00
41756;DHT22;27435;48.480;9.258;2024-03-06T03:35:16;5.80;99.00
41756;DHT22;27435;48.480;9.258;2024-03-06T03:37:42;5.90;99.00
41756;DHT22;27435;48.480;9.258;2024-03-06T03:40:09;5.90;99.00
41756;DHT22;27435;48.480;9.258;2024-03-06T03:42:37;5.90;99.00
41756;DHT22;27435;48.480;9.258;2024-03-06T03:45:04;6.00;99.00
41756;DHT22;27435;48.480;9.258;2024-03-06T03:47:30;6.00;99.00
41756;DHT22;27435;48.480;9.258;2024-03-06T03:49:56;5.90;99.00
41756;DHT22;27435;48.480;9.258;2024-03-06T03:52:21;5.90;99.00
41756;DHT22;27435;48.480;9.258;2024-03-06T03:54:47;5.90;99.00
41756;DHT22;27435;48.480;9.258;2024-03-06T03:57:13;5.90;99.00
41756;DHT22;27435;48.480;9.258;2024-03-06T03:59:39;5.90;99.00
41756;DHT22;27435;48.480;9.258;2024-03-06T04:02:06;5.70;99.00
41756;DHT22;27435;48.480;9.258;2024-03-06T04:04:32;5.70;99.00
41756;DHT22;27435;48.480;9.258;2024-03-06T04:06:59;5.70;99.00
41756;DHT22;27435;48.480;9.258;2024-03-06T04:09:30;5.80;99.00
41756;DHT22;27435;48.480;9.258;2024-03-06T04:11:55;5.80;99.00
41756;DHT22;27435;48.480;9.258;2024-03-06T04:14:21;5.70;99.00
41756;DHT22;27435;48.480;9.258;2024-03-06T04:16:47;5.70;99.00
41756;DHT22;27435;48.480;9.258;2024-03-06T04:19:13;5.80;99.00
41756;DHT22;27435;48.480;9.258;2024-03-06T04:21:43;5.80;99.00
41756;DHT22;27435;48.480;9.258;2024-03-06T04:24:09;5.80;99.00
41756;DHT22;27435;48.480;9.258;2024-03-06T04:26:35;5.80;99.00
41756;DHT22;27435;48.480;9.258;2024-03-06T04:29:00;5.80;99.00
41756;DHT22;27435;48.480;9.258;2024-03-06T04:31:26;5.60;99.00
41756;DHT22;27435;48.480;9.258;2024-03-06T04:33:52;5.40;99.00
41756;DHT22;27435;48.480;9.258;2024-03-06T04:36:18;5.40;99.00
41756;DHT22;27435;48.480;9.258;2024-03-06T04:38:43;5.40;99.00
41756;DHT22;27435;48.480;9.258;2024-03-06T04:41:09;5.40;99.00
41756;DHT22;27435;48.480;9.258;2024-03-06T04:43:36;5.40;99.00
41756;DHT22;27435;48.480;9.258;2024-03-06T04:46:02;5.30;99.00
41756;DHT22;27435;48.480;9.258;2024-03-06T04:48:28;5.20;99.00
41756;DHT22;27435;48.480;9.258;2024-03-06T04:50:53;5.20;99.00
41756;DHT22;27435;48.480;9.258;2024-03-06T04:53:19;5.20;99.00
41756;DHT22;27435;48.480;9.258;2024-03-06T04:55:47;5.30;99.00
41756;DHT22;27435;48.480;9.258;2024-03-06T04:58:13;5.20;99.00
41756;DHT22;27435;48.480;9.258;2024-03-06T05:00:39;5.20;99.00
41756;DHT22;27435;48.480;9.258;2024-03-06T05:03:04;5.20;99.00
41756;DHT22;27435;48.480;9.258;2024-03-06T05:05:30;5.30;99.00
41756;DHT22;27435;48.480;9.258;2024-03-06T05:07:57;5.20;99.00
41756;DHT22;27435;48.480;9.258;2024-03-06T05:10:23;5.10;99.00
41756;DHT22;27435;48.480;9.258;2024-03-06T05:12:49;4.90;99.00
41756;DHT22;27435;48.480;9.258;2024-03-06T05:15:16;5.10;99.00
41756;DHT22;27435;48.480;9.258;2024-03-06T05:17:41;5.10;99.00
41756;DHT22;27435;48.480;9.258;2024-03-06T05:20:07;5.10;99.00
41756;DHT22;27435;48.480;9.258;2024-03-06T05:22:33;5.00;99.00
41756;DHT22;27435;48.480;9.258;2024-03-06T05:24:59;5.00;99.00
41756;DHT22;27435;48.480;9.258;2024-03-06T05:27:25;5.10;99.00
41756;DHT22;27435;48.480;9.258;2024-03-06T05:29:51;5.20;99.00
41756;DHT22;27435;48.480;9.258;2024-03-06T05:32:17;5.00;99.00
41756;DHT22;27435;48.480;9.258;2024-03-06T05:34:43;5.00;99.00
41756;DHT22;27435;48.480;9.258;2024-03-06T05:37:10;5.00;99.00
41756;DHT22;27435;48.480;9.258;2024-03-06T05:39:36;4.90;99.00
41756;DHT22;27435;48.480;9.258;2024-03-06T05:42:04;5.00;99.00
41756;DHT22;27435;48.480;9.258;2024-03-06T05:44:33;5.00;99.00
41756;DHT22;27435;48.480;9.258;2024-03-06T05:46:59;5.00;99.00
41756;DHT22;27435;48.480;9.258;2024-03-06T05:49:26;4.90;99.00
41756;DHT22;27435;48.480;9.258;2024-03-06T05:51:52;4.80;99.00
41756;DHT22;27435;48.480;9.258;2024-03-06T05:54:21;4.90;99.00
41756;DHT22;27435;48.480;9.258;2024-03-06T05:56:48;5.10;99.00
41756;DHT22;27435;48.480;9.258;2024-03-06T05:59:15;5.10;99.00
41756;DHT22;27435;48.480;9.258;2024-03-06T06:01:41;5.10;99.00
41756;DHT22;27435;48.480;9.258;2024-03-06T06:04:08;5.10;99.00
41756;DHT22;27435;48.480;9.258;2024-03-06T06:06:34;5.10;99.00
41756;DHT22;27435;48.480;9.258;2024-03-06T06:09:00;5.10;99.00
41756;DHT22;27435;48.480;9.258;2024-03-06T06:11:26;5.20;99.00
41756;DHT22;27435;48.480;9.258;2024-03-06T06:13:52;5.20;99.00
41756;DHT22;27435;48.480;9.258;2024-03-06T06:16:17;5.30;99.00
41756;DHT22;27435;48.480;9.258;2024-03-06T06:18:43;5.20;99.00
41756;DHT22;27435;48.480;9.258;2024-03-06T06:21:09;5.30;99.00
41756;DHT22;27435;48.480;9.258;2024-03-06T06:23:35;5.30;99.00
41756;DHT22;27435;48.480;9.258;2024-03-06T06:26:01;5.10;99.00
41756;DHT22;27435;48.480;9.258;2024-03-06T06:28:26;5.10;99.00
41756;DHT22;27435;48.480;9.258;2024-03-06T06:30:52;5.00;99.00
41756;DHT22;27435;48.480;9.258;2024-03-06T06:33:19;5.00;99.00
41756;DHT22;27435;48.480;9.258;2024-03-06T06:35:44;4.90;99.00
41756;DHT22;27435;48.480;9.258;2024-03-06T06:38:10;4.90;99.00
41756;DHT22;27435;48.480;9.258;2024-03-06T06:40:36;4.90;99.00
41756;DHT22;27435;48.480;9.258;2024-03-06T06:43:01;4.80;99.00
41756;DHT22;27435;48.480;9.258;2024-03-06T06:45:27;4.80;99.00
41756;DHT22;27435;48.480;9.258;2024-03-06T06:47:53;4.80;99.00
41756;DHT22;27435;48.480;9.258;2024-03-06T06:50:19;4.70;99.00
41756;DHT22;27435;48.480;9.258;2024-03-06T06:52:48;4.60;99.00
41756;DHT22;27435;48.480;9.258;2024-03-06T06:55:14;4.70;99.00
41756;DHT22;27435;48.480;9.258;2024-03-06T06:57:40;4.80;99.00
41756;DHT22;27435;48.480;9.258;2024-03-06T07:00:06;4.80;99.00
41756;DHT22;27435;48.480;9.258;2024-03-06T07:02:45;4.80;99.00
41756;DHT22;27435;48.480;9.258;2024-03-06T07:05:11;4.80;99.00
41756;DHT22;27435;48.480;9.258;2024-03-06T07:07:37;4.80;99.00
41756;DHT22;27435;48.480;9.258;2024-03-06T07:10:06;4.80;99.00
41756;DHT22;27435;48.480;9.258;2024-03-06T07:12:32;4.80;99.00
41756;DHT22;27435;48.480;9.258;2024-03-06T07:14:58;4.70;99.00
41756;DHT22;27435;48.480;9.258;2024-03-06T07:17:25;4.70;99.00
41756;DHT22;27435;48.480;9.258;2024-03-06T07:19:50;4.70;99.00
41756;DHT22;27435;48.480;9.258;2024-03-06T07:22:18;4.80;99.00
41756;DHT22;27435;48.480;9.258;2024-03-06T07:24:43;4.70;99.00
41756;DHT22;27435;48.480;9.258;2024-03-06T07:27:10;4.70;99.00
41756;DHT22;27435;48.480;9.258;2024-03-06T07:29:36;4.70;99.00
41756;DHT22;27435;48.480;9.258;2024-03-06T07:32:02;4.70;99.00
41756;DHT22;27435;48.480;9.258;2024-03-06T07:34:28;4.70;99.00
41756;DHT22;27435;48.480;9.258;2024-03-06T07:36:54;4.80;99.00
41756;DHT22;27435;48.480;9.258;2024-03-06T07:39:20;4.90;99.00
41756;DHT22;27435;48.480;9.258;2024-03-06T07:41:46;4.80;99.00
41756;DHT22;27435;48.480;9.258;2024-03-06T07:44:12;4.90;99.00
41756;DHT22;27435;48.480;9.258;2024-03-06T07:46:38;5.00;99.00
41756;DHT22;27435;48.480;9.258;2024-03-06T07:49:04;4.80;99.00
41756;DHT22;27435;48.480;9.258;2024-03-06T07:51:33;4.80;99.00
41756;DHT22;27435;48.480;9.258;2024-03-06T07:53:59;4.80;99.00
41756;DHT22;27435;48.480;9.258;2024-03-06T07:56:25;4.70;99.00
41756;DHT22;27435;48.480;9.258;2024-03-06T07:58:51;4.70;99.00
41756;DHT22;27435;48.480;9.258;2024-03-06T08:01:17;4.70;99.00
41756;DHT22;27435;48.480;9.258;2024-03-06T08:03:43;4.70;99.00
41756;DHT22;27435;48.480;9.258;2024-03-06T08:06:09;4.80;99.00
41756;DHT22;27435;48.480;9.258;2024-03-06T08:08:36;4.90;99.00
41756;DHT22;27435;48.480;9.258;2024-03-06T08:11:02;4.90;99.00
41756;DHT22;27435;48.480;9.258;2024-03-06T08:13:28;5.00;99.00
41756;DHT22;27435;48.480;9.258;2024-03-06T08:15:54;4.90;99.00
41756;DHT22;27435;48.480;9.258;2024-03-06T08:18:20;4.90;99.00
41756;DHT22;27435;48.480;9.258;2024-03-06T08:20:45;5.00;99.00
41756;DHT22;27435;48.480;9.258;2024-03-06T08:23:11;4.90;99.00
41756;DHT22;27435;48.480;9.258;2024-03-06T08:25:37;4.80;99.00
41756;DHT22;27435;48.480;9.258;2024-03-06T08:28:03;4.90;99.00
41756;DHT22;27435;48.480;9.258;2024-03-06T08:30:29;5.00;99.00
41756;DHT22;27435;48.480;9.258;2024-03-06T08:32:57;5.00;99.00
41756;DHT22;27435;48.480;9.258;2024-03-06T08:35:24;5.00;99.00
41756;DHT22;27435;48.480;9.258;2024-03-06T08:37:50;5.00;99.00
41756;DHT22;27435;48.480;9.258;2024-03-06T08:40:17;5.10;99.00
41756;DHT22;27435;48.480;9.258;2024-03-06T08:42:49;5.00;99.00
41756;DHT22;27435;48.480;9.258;2024-03-06T08:45:16;5.00;99.00
41756;DHT22;27435;48.480;9.258;2024-03-06T08:47:43;4.90;99.00
41756;DHT22;27435;48.480;9.258;2024-03-06T08:50:10;5.00;99.00
41756;DHT22;27435;48.480;9.258;2024-03-06T08:52:36;5.00;99.00
41756;DHT22;27435;48.480;9.258;2024-03-06T08:55:03;5.00;99.00
41756;DHT22;27435;48.480;9.258;2024-03-06T08:57:32;5.00;99.00
41756;DHT22;27435;48.480;9.258;2024-03-06T08:59:58;5.00;99.00
41756;DHT22;27435;48.480;9.258;2024-03-06T09:02:24;5.00;99.00
41756;DHT22;27435;48.480;9.258;2024-03-06T09:04:51;5.00;99.00
41756;DHT22;27435;48.480;9.258;2024-03-06T09:07:18;5.10;99.00
41756;DHT22;27435;48.480;9.258;2024-03-06T09:09:44;5.10;99.00
41756;DHT22;27435;48.480;9.258;2024-03-06T09:12:10;5.10;99.00
41756;DHT22;27435;48.480;9.258;2024-03-06T09:14:39;5.10;99.00
41756;DHT22;27435;48.480;9.258;2024-03-06T09:17:05;5.10;99.00
41756;DHT22;27435;48.480;9.258;2024-03-06T09:19:32;5.10;99.00
41756;DHT22;27435;48.480;9.258;2024-03-06T09:21:58;5.20;99.00
41756;DHT22;27435;48.480;9.258;2024-03-06T09:24:24;5.20;99.00
41756;DHT22;27435;48.480;9.258;2024-03-06T09:26:50;5.20;99.00
41756;DHT22;27435;48.480;9.258;2024-03-06T09:29:16;5.10;99.00
41756;DHT22;27435;48.480;9.258;2024-03-06T09:31:42;5.10;99.00
41756;DHT22;27435;48.480;9.258;2024-03-06T09:34:08;5.30;99.00
41756;DHT22;27435;48.480;9.258;2024-03-06T09:36:48;5.40;99.00
41756;DHT22;27435;48.480;9.258;2024-03-06T09:39:15;5.40;99.00
41756;DHT22;27435;48.480;9.258;2024-03-06T09:41:50;5.50;99.00
41756;DHT22;27435;48.480;9.258;2024-03-06T09:44:17;5.50;99.00
41756;DHT22;27435;48.480;9.258;2024-03-06T09:46:47;5.50;99.00
41756;DHT22;27435;48.480;9.258;2024-03-06T09:49:16;5.50;99.00
41756;DHT22;27435;48.480;9.258;2024-03-06T09:51:48;5.50;99.00
41756;DHT22;27435;48.480;9.258;2024-03-06T09:54:19;5.40;99.00
41756;DHT22;27435;48.480;9.258;2024-03-06T09:56:48;5.40;99.00
41756;DHT22;27435;48.480;9.258;2024-03-06T09:59:14;5.40;99.00
41756;DHT22;27435;48.480;9.258;2024-03-06T10:04:37;5.50;99.00
41756;DHT22;27435;48.480;9.258;2024-03-06T10:07:03;5.50;99.00
41756;DHT22;27435;48.480;9.258;2024-03-06T10:09:31;5.50;99.00
41756;DHT22;27435;48.480;9.258;2024-03-06T10:11:58;5.60;99.00
41756;DHT22;27435;48.480;9.258;2024-03-06T10:14:24;5.50;99.00
41756;DHT22;27435;48.480;9.258;2024-03-06T10:16:56;5.60;99.00
41756;DHT22;27435;48.480;9.258;2024-03-06T10:19:23;5.50;99.00
41756;DHT22;27435;48.480;9.258;2024-03-06T10:21:49;5.50;99.00
41756;DHT22;27435;48.480;9.258;2024-03-06T10:24:28;5.40;99.00
41756;DHT22;27435;48.480;9.258;2024-03-06T10:26:58;5.50;99.00
41756;DHT22;27435;48.480;9.258;2024-03-06T10:29:26;5.50;99.00
41756;DHT22;27435;48.480;9.258;2024-03-06T10:31:54;5.50;99.00
41756;DHT22;27435;48.480;9.258;2024-03-06T10:34:20;5.50;99.00
41756;DHT22;27435;48.480;9.258;2024-03-06T10:36:52;5.70;99.00
41756;DHT22;27435;48.480;9.258;2024-03-06T10:39:20;5.50;99.00
41756;DHT22;27435;48.480;9.258;2024-03-06T10:41:46;5.50;99.00
41756;DHT22;27435;48.480;9.258;2024-03-06T10:44:19;5.50;99.00
41756;DHT22;27435;48.480;9.258;2024-03-06T10:46:47;5.40;99.00
41756;DHT22;27435;48.480;9.258;2024-03-06T10:49:19;5.50;99.00
41756;DHT22;27435;48.480;9.258;2024-03-06T10:51:46;5.50;99.00
41756;DHT22;27435;48.480;9.258;2024-03-06T10:54:13;5.40;99.00
41756;DHT22;27435;48.480;9.258;2024-03-06T10:56:40;5.40;99.00
41756;DHT22;27435;48.480;9.258;2024-03-06T10:59:12;5.50;99.00
41756;DHT22;27435;48.480;9.258;2024-03-06T11:01:39;5.40;99.00
41756;DHT22;27435;48.480;9.258;2024-03-06T11:04:05;5.50;99.00
41756;DHT22;27435;48.480;9.258;2024-03-06T11:06:32;5.50;99.00
41756;DHT22;27435;48.480;9.258;2024-03-06T11:08:59;5.50;99.00
41756;DHT22;27435;48.480;9.258;2024-03-06T11:11:24;5.50;99.00
41756;DHT22;27435;48.480;9.258;2024-03-06T11:13:55;5.60;99.00
41756;DHT22;27435;48.480;9.258;2024-03-06T11:16:30;5.60;99.00
41756;DHT22;27435;48.480;9.258;2024-03-06T11:19:08;5.50;99.00
41756;DHT22;27435;48.480;9.258;2024-03-06T11:21:34;5.50;99.00
41756;DHT22;27435;48.480;9.258;2024-03-06T11:24:22;5.40;99.00
41756;DHT22;27435;48.480;9.258;2024-03-06T11:26:50;5.40;99.00
41756;DHT22;27435;48.480;9.258;2024-03-06T11:29:17;5.40;99.00
41756;DHT22;27435;48.480;9.258;2024-03-06T11:32:16;5.40;99.00
41756;DHT22;27435;48.480;9.258;2024-03-06T11:34:42;5.50;99.00
41756;DHT22;27435;48.480;9.258;2024-03-06T11:37:08;5.40;99.00
41756;DHT22;27435;48.480;9.258;2024-03-06T11:39:38;5.40;99.00
41756;DHT22;27435;48.480;9.258;2024-03-06T11:42:04;5.40;99.00
41756;DHT22;27435;48.480;9.258;2024-03-06T11:44:34;5.40;99.00
41756;DHT22;27435;48.480;9.258;2024-03-06T11:47:03;5.30;99.00
41756;DHT22;27435;48.480;9.258;2024-03-06T11:49:30;5.30;99.00
41756;DHT22;27435;48.480;9.258;2024-03-06T11:52:09;5.30;99.00
41756;DHT22;27435;48.480;9.258;2024-03-06T11:54:35;5.30;99.00
41756;DHT22;27435;48.480;9.258;2024-03-06T11:57:03;5.30;99.00
41756;DHT22;27435;48.480;9.258;2024-03-06T11:59:33;5.30;99.00
41756;DHT22;27435;48.480;9.258;2024-03-06T12:02:01;5.30;99.00
41756;DHT22;27435;48.480;9.258;2024-03-06T12:04:27;5.40;99.00
41756;DHT22;27435;48.480;9.258;2024-03-06T12:07:00;5.40;99.00
41756;DHT22;27435;48.480;9.258;2024-03-06T12:09:30;5.50;99.00
41756;DHT22;27435;48.480;9.258;2024-03-06T12:11:56;5.50;99.00
41756;DHT22;27435;48.480;9.258;2024-03-06T12:14:25;5.70;99.00
41756;DHT22;27435;48.480;9.258;2024-03-06T12:16:59;5.80;99.00
41756;DHT22;27435;48.480;9.258;2024-03-06T12:19:26;5.80;99.00
41756;DHT22;27435;48.480;9.258;2024-03-06T12:21:53;5.90;99.00
41756;DHT22;27435;48.480;9.258;2024-03-06T12:24:19;6.00;99.00
41756;DHT22;27435;48.480;9.258;2024-03-06T12:26:45;6.10;99.00
41756;DHT22;27435;48.480;9.258;2024-03-06T12:29:18;6.30;99.00
41756;DHT22;27435;48.480;9.258;2024-03-06T12:31:46;6.40;99.00
41756;DHT22;27435;48.480;9.258;2024-03-06T12:34:14;6.20;99.00
41756;DHT22;27435;48.480;9.258;2024-03-06T12:36:43;6.20;99.00
41756;DHT22;27435;48.480;9.258;2024-03-06T12:39:09;6.10;99.00
41756;DHT22;27435;48.480;9.258;2024-03-06T12:41:44;6.10;99.00
41756;DHT22;27435;48.480;9.258;2024-03-06T12:44:10;6.20;99.00
41756;DHT22;27435;48.480;9.258;2024-03-06T12:46:36;6.20;99.00
41756;DHT22;27435;48.480;9.258;2024-03-06T12:49:02;6.30;99.00
41756;DHT22;27435;48.480;9.258;2024-03-06T12:51:27;6.30;99.00
41756;DHT22;27435;48.480;9.258;2024-03-06T12:53:53;6.30;99.00
41756;DHT22;27435;48.480;9.258;2024-03-06T12:56:19;6.20;99.00
41756;DHT22;27435;48.480;9.258;2024-03-06T12:58:54;6.10;99.00
41756;DHT22;27435;48.480;9.258;2024-03-06T13:01:19;6.00;99.00
41756;DHT22;27435;48.480;9.258;2024-03-06T13:03:45;5.90;99.00
41756;DHT22;27435;48.480;9.258;2024-03-06T13:06:11;5.90;99.00
41756;DHT22;27435;48.480;9.258;2024-03-06T13:08:37;5.80;99.00
41756;DHT22;27435;48.480;9.258;2024-03-06T13:11:03;5.80;99.00
41756;DHT22;27435;48.480;9.258;2024-03-06T13:13:29;5.80;99.00
41756;DHT22;27435;48.480;9.258;2024-03-06T13:15:56;5.90;99.00
41756;DHT22;27435;48.480;9.258;2024-03-06T13:18:22;5.70;99.00
41756;DHT22;27435;48.480;9.258;2024-03-06T13:20:48;5.60;99.00
41756;DHT22;27435;48.480;9.258;2024-03-06T13:23:14;5.80;99.00
41756;DHT22;27435;48.480;9.258;2024-03-06T13:25:40;5.80;99.00
41756;DHT22;27435;48.480;9.258;2024-03-06T13:28:06;5.90;99.00
41756;DHT22;27435;48.480;9.258;2024-03-06T13:30:32;5.70;99.00
41756;DHT22;27435;48.480;9.258;2024-03-06T13:32:58;5.80;99.00
41756;DHT22;27435;48.480;9.258;2024-03-06T13:35:24;5.80;99.00
41756;DHT22;27435;48.480;9.258;2024-03-06T13:37:50;5.80;99.00
41756;DHT22;27435;48.480;9.258;2024-03-06T13:40:16;6.00;99.00
41756;DHT22;27435;48.480;9.258;2024-03-06T13:42:42;6.10;99.00
41756;DHT22;27435;48.480;9.258;2024-03-06T13:45:09;5.90;99.00
41756;DHT22;27435;48.480;9.258;2024-03-06T13:47:39;5.90;99.00
41756;DHT22;27435;48.480;9.258;2024-03-06T13:50:24;6.10;99.00
41756;DHT22;27435;48.480;9.258;2024-03-06T13:52:53;6.10;99.00
41756;DHT22;27435;48.480;9.258;2024-03-06T13:55:18;6.20;99.00
41756;DHT22;27435;48.480;9.258;2024-03-06T13:57:44;6.20;99.00
41756;DHT22;27435;48.480;9.258;2024-03-06T14:00:10;6.00;99.00
41756;DHT22;27435;48.480;9.258;2024-03-06T14:02:43;6.10;99.00
41756;DHT22;27435;48.480;9.258;2024-03-06T14:05:11;6.20;99.00
41756;DHT22;27435;48.480;9.258;2024-03-06T14:07:38;6.10;99.00
41756;DHT22;27435;48.480;9.258;2024-03-06T14:10:04;6.10;99.00
41756;DHT22;27435;48.480;9.258;2024-03-06T14:12:30;6.00;99.00
41756;DHT22;27435;48.480;9.258;2024-03-06T14:14:56;6.00;99.00
41756;DHT22;27435;48.480;9.258;2024-03-06T14:17:21;5.90;99.00
41756;DHT22;27435;48.480;9.258;2024-03-06T14:19:47;6.10;99.00
41756;DHT22;27435;48.480;9.258;2024-03-06T14:22:13;6.30;99.00
41756;DHT22;27435;48.480;9.258;2024-03-06T14:24:38;6.30;99.00
41756;DHT22;27435;48.480;9.258;2024-03-06T14:27:04;6.30;99.00
41756;DHT22;27435;48.480;9.258;2024-03-06T14:29:31;6.20;99.00
41756;DHT22;27435;48.480;9.258;2024-03-06T14:31:56;6.30;99.00
41756;DHT22;27435;48.480;9.258;2024-03-06T14:34:22;6.10;99.00
41756;DHT22;27435;48.480;9.258;2024-03-06T14:36:53;6.00;99.00
41756;DHT22;27435;48.480;9.258;2024-03-06T14:39:19;5.90;99.00
41756;DHT22;27435;48.480;9.258;2024-03-06T14:41:49;6.00;99.00
41756;DHT22;27435;48.480;9.258;2024-03-06T14:44:15;5.80;99.00
41756;DHT22;27435;48.480;9.258;2024-03-06T14:46:41;5.90;99.00
41756;DHT22;27435;48.480;9.258;2024-03-06T14:49:08;6.10;99.00
41756;DHT22;27435;48.480;9.258;2024-03-06T14:51:34;6.10;99.00
41756;DHT22;27435;48.480;9.258;2024-03-06T14:54:00;6.10;99.00
41756;DHT22;27435;48.480;9.258;2024-03-06T14:56:26;6.10;99.00
41756;DHT22;27435;48.480;9.258;2024-03-06T14:58:51;6.00;99.00
41756;DHT22;27435;48.480;9.258;2024-03-06T15:01:18;6.10;99.00
41756;DHT22;27435;48.480;9.258;2024-03-06T15:03:44;6.00;99.00
41756;DHT22;27435;48.480;9.258;2024-03-06T15:06:13;6.10;99.00
41756;DHT22;27435;48.480;9.258;2024-03-06T15:08:39;6.00;99.00
41756;DHT22;27435;48.480;9.258;2024-03-06T15:11:06;6.00;99.00
41756;DHT22;27435;48.480;9.258;2024-03-06T15:13:32;6.00;99.00
41756;DHT22;27435;48.480;9.258;2024-03-06T15:15:58;6.00;99.00
41756;DHT22;27435;48.480;9.258;2024-03-06T15:18:24;6.10;99.00
41756;DHT22;27435;48.480;9.258;2024-03-06T15:20:50;6.00;99.00
41756;DHT22;27435;48.480;9.258;2024-03-06T15:23:16;6.10;99.00
41756;DHT22;27435;48.480;9.258;2024-03-06T15:25:42;6.10;99.00
41756;DHT22;27435;48.480;9.258;2024-03-06T15:28:12;6.10;99.00
41756;DHT22;27435;48.480;9.258;2024-03-06T15:30:38;6.10;99.00
41756;DHT22;27435;48.480;9.258;2024-03-06T15:33:04;6.10;99.00
41756;DHT22;27435;48.480;9.258;2024-03-06T15:35:30;6.10;99.00
41756;DHT22;27435;48.480;9.258;2024-03-06T15:37:56;6.10;99.00
41756;DHT22;27435;48.480;9.258;2024-03-06T15:40:22;6.00;99.00
41756;DHT22;27435;48.480;9.258;2024-03-06T15:42:48;6.20;99.00
41756;DHT22;27435;48.480;9.258;2024-03-06T15:45:13;6.20;99.00